createdAt,value
2023-05-06T00:01:42.420Z,101673.66
2023-05-06T00:04:09.183Z,101663.91
2023-05-06T00:06:35.916Z,101657.31
2023-05-06T00:09:02.523Z,101664.31
2023-05-06T00:11:29.266Z,101667.78
2023-05-06T00:13:55.920Z,101670.69
2023-05-06T00:16:22.973Z,101666.03
2023-05-06T00:18:49.897Z,101676.00
2023-05-06T00:21:16.572Z,101667.72
2023-05-06T00:23:43.185Z,101667.16
2023-05-06T00:26:10.649Z,101676.94
2023-05-06T00:28:37.287Z,101623.44
2023-05-06T00:31:04.189Z,101676.84
2023-05-06T00:33:31.019Z,101669.50
2023-05-06T00:35:57.617Z,101621.66
2023-05-06T00:38:24.449Z,101652.31
2023-05-06T00:40:51.032Z,101669.72
2023-05-06T00:43:17.744Z,101676.97
2023-05-06T00:45:44.671Z,101666.56
2023-05-06T00:48:11.565Z,101658.66
2023-05-06T00:50:40.403Z,101673.59
2023-05-06T00:53:09.352Z,101671.53
2023-05-06T00:55:36.531Z,101679.84
2023-05-06T00:58:04.233Z,101680.69
2023-05-06T01:00:30.903Z,101675.38
2023-05-06T01:02:57.533Z,101666.47
2023-05-06T01:05:29.900Z,101659.06
2023-05-06T01:08:26.816Z,101670.59
2023-05-06T01:11:07.996Z,101674.28
2023-05-06T01:13:47.139Z,101646.75
2023-05-06T01:16:16.890Z,101646.63
2023-05-06T01:18:44.746Z,101645.88
2023-05-06T01:21:13.549Z,101644.19
2023-05-06T01:23:53.731Z,101656.84
2023-05-06T01:26:20.779Z,101626.22
2023-05-06T01:28:47.344Z,101653.22
2023-05-06T01:31:35.510Z,101668.66
2023-05-06T01:34:26.430Z,101649.91
2023-05-06T01:37:04.352Z,101638.50
2023-05-06T01:39:32.534Z,101643.19
2023-05-06T01:42:02.073Z,101656.66
2023-05-06T01:44:33.555Z,101644.72
2023-05-06T01:47:01.322Z,101644.84
2023-05-06T01:49:29.954Z,101651.28
2023-05-06T01:51:56.609Z,101643.84
2023-05-06T01:54:23.782Z,101659.63
2023-05-06T01:56:50.449Z,101650.63
2023-05-06T01:59:17.079Z,101651.00
2023-05-06T02:01:43.812Z,101656.84
2023-05-06T02:04:10.636Z,101663.25
2023-05-06T02:06:37.433Z,101585.78
2023-05-06T02:09:04.253Z,101650.28
2023-05-06T02:11:30.811Z,101621.97
2023-05-06T02:13:58.294Z,101651.75
2023-05-06T02:16:28.660Z,101649.34
2023-05-06T02:18:55.558Z,101653.69
2023-05-06T02:21:23.256Z,101643.84
2023-05-06T02:23:50.191Z,101635.66
2023-05-06T02:26:16.906Z,101648.66
2023-05-06T02:28:43.688Z,101653.03
2023-05-06T02:31:14.735Z,101650.16
2023-05-06T02:33:41.844Z,101657.16
2023-05-06T02:36:08.693Z,101616.13
2023-05-06T02:38:35.323Z,101633.28
2023-05-06T02:41:01.971Z,101649.81
2023-05-06T02:43:28.824Z,101634.03
2023-05-06T02:45:55.625Z,101621.38
2023-05-06T02:48:22.293Z,101622.44
2023-05-06T02:50:50.673Z,101650.81
2023-05-06T02:53:17.342Z,101646.59
2023-05-06T02:55:43.945Z,101641.03
2023-05-06T02:58:10.553Z,101619.09
2023-05-06T03:00:37.134Z,101652.63
2023-05-06T03:03:03.855Z,101636.22
2023-05-06T03:05:30.621Z,101615.47
2023-05-06T03:07:57.605Z,101639.63
2023-05-06T03:10:24.639Z,101634.81
2023-05-06T03:12:51.314Z,101644.78
2023-05-06T03:15:18.413Z,101628.75
2023-05-06T03:17:47.063Z,101629.34
2023-05-06T03:20:14.081Z,101636.97
2023-05-06T03:22:42.509Z,101607.66
2023-05-06T03:25:09.596Z,101633.34
2023-05-06T03:27:36.628Z,101643.94
2023-05-06T03:30:03.864Z,101650.13
2023-05-06T03:32:30.945Z,101643.47
2023-05-06T03:34:57.929Z,101656.75
2023-05-06T03:37:24.577Z,101652.28
2023-05-06T03:39:51.204Z,101655.06
2023-05-06T03:42:17.872Z,101650.25
2023-05-06T03:44:44.473Z,101651.22
2023-05-06T03:47:11.222Z,101653.34
2023-05-06T03:49:37.991Z,101632.22
2023-05-06T03:52:05.289Z,101648.53
2023-05-06T03:54:31.977Z,101641.78
2023-05-06T03:56:58.620Z,101648.03
2023-05-06T03:59:25.645Z,101631.59
2023-05-06T04:01:52.285Z,101637.75
2023-05-06T04:04:19.025Z,101643.91
2023-05-06T04:06:45.639Z,101649.97
2023-05-06T04:09:12.205Z,101657.44
2023-05-06T04:11:38.944Z,101642.47
2023-05-06T04:14:05.644Z,101660.69
2023-05-06T04:16:32.203Z,101663.97
2023-05-06T04:18:58.904Z,101654.53
2023-05-06T04:21:25.653Z,101666.63
2023-05-06T04:23:52.330Z,101642.22
2023-05-06T04:26:19.331Z,101589.72
2023-05-06T04:28:45.912Z,101672.53
2023-05-06T04:31:14.598Z,101631.81
2023-05-06T04:33:41.651Z,101670.75
2023-05-06T04:36:08.714Z,101623.66
2023-05-06T04:38:37.444Z,101634.06
2023-05-06T04:41:05.645Z,101684.03
2023-05-06T04:43:32.871Z,101686.44
2023-05-06T04:45:59.607Z,101686.38
2023-05-06T04:48:26.525Z,101650.75
2023-05-06T04:50:53.279Z,101675.81
2023-05-06T04:53:19.866Z,101685.84
2023-05-06T04:55:46.633Z,101664.47
2023-05-06T04:58:13.240Z,101693.19
2023-05-06T05:00:39.894Z,101616.44
2023-05-06T05:03:06.672Z,101689.22
2023-05-06T05:05:36.701Z,101706.38
2023-05-06T05:08:03.428Z,101683.78
2023-05-06T05:10:30.259Z,101699.69
2023-05-06T05:12:57.029Z,101676.00
2023-05-06T05:15:23.734Z,101693.38
2023-05-06T05:17:51.111Z,101698.28
2023-05-06T05:20:17.922Z,101698.78
2023-05-06T05:22:44.522Z,101687.47
2023-05-06T05:25:11.376Z,101704.63
2023-05-06T05:27:38.381Z,101706.31
2023-05-06T05:30:05.591Z,101691.13
2023-05-06T05:32:32.207Z,101706.56
2023-05-06T05:34:58.795Z,101689.41
2023-05-06T05:37:25.357Z,101686.88
2023-05-06T05:39:52.110Z,101707.13
2023-05-06T05:42:18.759Z,101694.63
2023-05-06T05:44:45.693Z,101682.91
2023-05-06T05:47:12.814Z,101710.06
2023-05-06T05:49:39.445Z,101665.78
2023-05-06T05:52:07.269Z,101695.72
2023-05-06T05:54:34.072Z,101672.19
2023-05-06T05:57:01.021Z,101705.13
2023-05-06T05:59:28.641Z,101714.03
2023-05-06T06:01:55.434Z,101701.97
2023-05-06T06:04:22.187Z,101714.47
2023-05-06T06:06:48.859Z,101699.53
2023-05-06T06:09:17.788Z,101701.81
2023-05-06T06:11:44.610Z,101701.44
2023-05-06T06:14:11.379Z,101695.03
2023-05-06T06:16:38.397Z,101719.63
2023-05-06T06:19:05.332Z,101733.50
2023-05-06T06:21:31.995Z,101736.38
2023-05-06T06:23:58.740Z,101734.88
2023-05-06T06:26:25.398Z,101705.84
2023-05-06T06:28:51.999Z,101704.66
2023-05-06T06:31:18.740Z,101738.44
2023-05-06T06:33:45.407Z,101741.28
2023-05-06T06:36:12.048Z,101739.34
2023-05-06T06:38:38.732Z,101740.78
2023-05-06T06:41:05.411Z,101733.75
2023-05-06T06:43:32.106Z,101738.56
2023-05-06T06:45:59.430Z,101734.19
2023-05-06T06:48:26.242Z,101742.81
2023-05-06T06:50:53.011Z,101750.44
2023-05-06T06:53:20.541Z,101725.66
2023-05-06T06:55:47.266Z,101727.38
2023-05-06T06:58:14.127Z,101743.72
2023-05-06T07:00:40.815Z,101737.28
2023-05-06T07:03:07.603Z,101756.44
2023-05-06T07:05:34.228Z,101733.94
2023-05-06T07:08:00.943Z,101749.56
2023-05-06T07:10:27.631Z,101752.25
2023-05-06T07:12:54.437Z,101750.00
2023-05-06T07:15:21.279Z,101743.56
2023-05-06T07:17:47.968Z,101745.25
2023-05-06T07:20:14.576Z,101753.56
2023-05-06T07:22:41.414Z,101740.47
2023-05-06T07:25:08.728Z,101754.25
2023-05-06T07:27:35.485Z,101751.88
2023-05-06T07:30:02.372Z,101753.28
2023-05-06T07:32:29.577Z,101719.97
2023-05-06T07:34:56.192Z,101739.69
2023-05-06T07:37:22.800Z,101703.69
2023-05-06T07:39:49.490Z,101721.16
2023-05-06T07:42:16.081Z,101752.69
2023-05-06T07:44:42.662Z,101752.16
2023-05-06T07:47:09.540Z,101736.41
2023-05-06T07:49:36.400Z,101753.53
2023-05-06T07:52:04.156Z,101759.28
2023-05-06T07:54:31.884Z,101769.19
2023-05-06T07:56:58.698Z,101753.31
2023-05-06T07:59:25.515Z,101744.56
2023-05-06T08:01:52.242Z,101744.16
2023-05-06T08:04:18.883Z,101739.44
2023-05-06T08:06:45.802Z,101746.06
2023-05-06T08:09:17.020Z,101748.22
2023-05-06T08:11:49.921Z,101765.72
2023-05-06T08:14:16.512Z,101778.53
2023-05-06T08:16:43.305Z,101750.94
2023-05-06T08:19:10.028Z,101764.84
2023-05-06T08:21:36.683Z,101742.50
2023-05-06T08:24:03.607Z,101744.84
2023-05-06T08:26:30.353Z,101766.72
2023-05-06T08:28:57.794Z,101749.59
2023-05-06T08:31:24.515Z,101750.09
2023-05-06T08:33:53.897Z,101759.97
2023-05-06T08:36:22.122Z,101743.50
2023-05-06T08:38:50.594Z,101760.31
2023-05-06T08:41:19.623Z,101756.81
2023-05-06T08:43:49.084Z,101763.41
2023-05-06T08:46:16.715Z,101768.84
2023-05-06T08:48:43.795Z,101760.94
2023-05-06T08:51:14.276Z,101752.03
2023-05-06T08:53:46.585Z,101761.44
2023-05-06T08:56:15.023Z,101761.13
2023-05-06T08:58:45.588Z,101748.38
2023-05-06T09:01:12.428Z,101762.16
2023-05-06T09:03:39.236Z,101739.94
2023-05-06T09:06:06.003Z,101761.47
2023-05-06T09:08:32.784Z,101748.53
2023-05-06T09:10:59.436Z,101699.34
2023-05-06T09:13:26.085Z,101739.66
2023-05-06T09:15:55.566Z,101766.19
2023-05-06T09:18:22.726Z,101728.91
2023-05-06T09:20:49.937Z,101767.88
2023-05-06T09:23:17.972Z,101764.50
2023-05-06T09:25:46.815Z,101756.59
2023-05-06T09:28:13.956Z,101721.84
2023-05-06T09:30:43.658Z,101756.78
2023-05-06T09:33:12.015Z,101761.66
2023-05-06T09:35:43.723Z,101759.66
2023-05-06T09:38:10.803Z,101750.38
2023-05-06T09:40:38.525Z,101741.31
2023-05-06T09:43:06.119Z,101766.38
2023-05-06T09:45:33.219Z,101734.75
2023-05-06T09:48:01.128Z,101721.16
2023-05-06T09:50:28.229Z,101753.06
2023-05-06T09:52:55.838Z,101760.78
2023-05-06T09:55:26.542Z,101738.59
2023-05-06T09:57:54.620Z,101756.72
2023-05-06T10:00:26.977Z,101752.66
2023-05-06T10:02:54.645Z,101735.84
2023-05-06T10:05:22.803Z,101752.22
2023-05-06T10:07:52.391Z,101735.06
2023-05-06T10:10:19.185Z,101743.56
2023-05-06T10:12:46.243Z,101734.97
2023-05-06T10:15:13.078Z,101749.66
2023-05-06T10:17:45.265Z,101751.63
2023-05-06T10:20:14.149Z,101741.78
2023-05-06T10:23:01.590Z,101736.78
2023-05-06T10:25:38.487Z,101745.84
2023-05-06T10:28:13.408Z,101730.59
2023-05-06T10:30:47.682Z,101732.69
2023-05-06T10:33:16.113Z,101720.75
2023-05-06T10:35:50.709Z,101743.13
2023-05-06T10:38:26.776Z,101737.81
2023-05-06T10:40:54.757Z,101728.28
2023-05-06T10:43:27.583Z,101732.19
2023-05-06T10:46:15.462Z,101730.53
2023-05-06T10:49:11.341Z,101726.81
2023-05-06T10:51:39.072Z,101704.78
2023-05-06T10:54:20.669Z,101721.72
2023-05-06T10:56:50.878Z,101721.16
2023-05-06T10:59:29.991Z,101720.63
2023-05-06T11:02:08.540Z,101714.16
2023-05-06T11:04:35.317Z,101725.25
2023-05-06T11:07:12.916Z,101716.81
2023-05-06T11:09:56.278Z,101707.41
2023-05-06T11:12:43.000Z,101697.66
2023-05-06T11:15:26.635Z,101692.28
2023-05-06T11:17:55.825Z,101700.00
2023-05-06T11:20:25.604Z,101696.28
2023-05-06T11:22:53.587Z,101675.88
2023-05-06T11:25:40.581Z,101698.97
2023-05-06T11:28:13.687Z,101669.81
2023-05-06T11:30:53.609Z,101684.50
2023-05-06T11:33:24.387Z,101687.66
2023-05-06T11:35:51.011Z,101642.84
2023-05-06T11:38:17.714Z,101697.16
2023-05-06T11:40:44.562Z,101658.56
2023-05-06T11:43:15.137Z,101696.06
2023-05-06T11:45:46.983Z,101684.09
2023-05-06T11:48:15.445Z,101692.56
2023-05-06T11:50:49.925Z,101700.88
2023-05-06T11:53:19.174Z,101691.50
2023-05-06T11:55:47.473Z,101695.69
2023-05-06T11:58:28.627Z,101672.41
2023-05-06T12:01:01.127Z,101690.25
2023-05-06T12:03:29.858Z,101695.25
2023-05-06T12:05:57.053Z,101677.97
2023-05-06T12:08:28.347Z,101678.88
2023-05-06T12:10:59.138Z,101689.81
2023-05-06T12:13:26.693Z,101714.19
2023-05-06T12:15:55.171Z,101698.34
2023-05-06T12:18:23.453Z,101670.72
2023-05-06T12:20:50.204Z,101709.34
2023-05-06T12:23:16.870Z,101712.53
2023-05-06T12:25:46.809Z,101677.19
2023-05-06T12:28:17.896Z,101711.13
2023-05-06T12:30:45.870Z,101714.16
2023-05-06T12:33:13.373Z,101728.41
2023-05-06T12:35:41.232Z,101723.31
2023-05-06T12:38:13.072Z,101740.81
2023-05-06T12:40:41.420Z,101722.63
2023-05-06T12:43:09.008Z,101709.41
2023-05-06T12:45:36.095Z,101707.22
2023-05-06T12:48:04.016Z,101720.13
2023-05-06T12:50:41.862Z,101734.75
2023-05-06T12:53:11.009Z,101744.84
2023-05-06T12:55:38.668Z,101764.16
2023-05-06T12:58:16.494Z,101755.47
2023-05-06T13:00:43.234Z,101785.81
2023-05-06T13:03:11.565Z,101795.25
2023-05-06T13:05:38.311Z,101790.13
2023-05-06T13:08:06.004Z,101788.72
2023-05-06T13:10:32.726Z,101767.91
2023-05-06T13:12:59.475Z,101772.78
2023-05-06T13:15:27.043Z,101764.13
2023-05-06T13:17:53.855Z,101753.09
2023-05-06T13:20:20.513Z,101751.00
2023-05-06T13:22:53.830Z,101740.88
2023-05-06T13:25:21.901Z,101730.31
2023-05-06T13:27:48.690Z,101741.41
2023-05-06T13:30:15.433Z,101759.13
2023-05-06T13:32:42.196Z,101743.69
2023-05-06T13:35:09.401Z,101754.91
2023-05-06T13:37:36.163Z,101756.88
2023-05-06T13:40:03.590Z,101736.63
2023-05-06T13:42:30.299Z,101726.53
2023-05-06T13:44:56.971Z,101734.81
2023-05-06T13:47:24.251Z,101739.16
2023-05-06T13:49:51.112Z,101735.50
2023-05-06T13:52:17.708Z,101755.19
2023-05-06T13:54:45.042Z,101760.53
2023-05-06T13:57:11.625Z,101763.06
2023-05-06T13:59:38.237Z,101760.81
2023-05-06T14:02:08.789Z,101732.16
2023-05-06T14:04:36.256Z,101734.50
2023-05-06T14:07:03.004Z,101731.03
2023-05-06T14:09:29.808Z,101737.63
2023-05-06T14:11:56.385Z,101714.47
2023-05-06T14:14:22.942Z,101740.31
2023-05-06T14:16:51.745Z,101722.75
2023-05-06T14:19:18.343Z,101720.34
2023-05-06T14:21:44.906Z,101739.91
2023-05-06T14:24:12.626Z,101711.38
2023-05-06T14:26:40.401Z,101702.41
2023-05-06T14:29:07.063Z,101667.31
2023-05-06T14:31:34.605Z,101705.50
2023-05-06T14:34:02.029Z,101694.81
2023-05-06T14:36:28.967Z,101737.09
2023-05-06T14:38:55.522Z,101745.50
2023-05-06T14:41:22.075Z,101724.59
2023-05-06T14:43:48.686Z,101745.94
2023-05-06T14:46:16.613Z,101744.97
2023-05-06T14:48:43.698Z,101737.94
2023-05-06T14:51:10.383Z,101720.66
2023-05-06T14:53:37.164Z,101749.03
2023-05-06T14:56:03.927Z,101738.59
2023-05-06T14:58:30.544Z,101744.38
2023-05-06T15:24:15.863Z,101757.63
2023-05-06T15:26:42.612Z,101745.81
2023-05-06T15:29:09.280Z,101746.81
2023-05-06T15:31:39.297Z,101754.13
2023-05-06T15:34:09.778Z,101754.41
2023-05-06T15:36:36.877Z,101739.38
2023-05-06T15:39:03.986Z,101756.34
2023-05-06T15:41:34.816Z,101709.44
2023-05-06T15:44:03.134Z,101706.78
2023-05-06T15:46:31.626Z,101740.63
2023-05-06T15:49:21.061Z,101739.75
2023-05-06T15:51:45.043Z,101712.66
2023-05-06T15:54:11.690Z,101727.38
2023-05-06T15:56:40.919Z,101728.47
2023-05-06T15:59:08.646Z,101738.25
2023-05-06T16:01:50.682Z,101749.47
2023-05-06T16:04:22.945Z,101728.06
2023-05-06T16:06:50.122Z,101738.97
2023-05-06T16:09:16.781Z,101713.13
2023-05-06T16:11:43.547Z,101748.19
2023-05-06T16:14:10.137Z,101745.91
2023-05-06T16:16:36.792Z,101737.75
2023-05-06T16:19:04.007Z,101717.22
2023-05-06T16:21:30.747Z,101724.81
2023-05-06T16:23:57.613Z,101722.06
2023-05-06T16:26:24.703Z,101729.63
2023-05-06T16:28:51.554Z,101707.78
2023-05-06T16:31:18.511Z,101732.19
2023-05-06T16:33:45.554Z,101712.53
2023-05-06T16:36:12.623Z,101743.13
2023-05-06T16:38:39.253Z,101718.44
2023-05-06T16:41:06.055Z,101680.38
2023-05-06T16:43:32.708Z,101736.91
2023-05-06T16:45:59.294Z,101737.03
2023-05-06T16:48:26.308Z,101727.63
2023-05-06T16:50:53.016Z,101719.84
2023-05-06T16:53:19.788Z,101710.94
2023-05-06T16:55:48.827Z,101726.63
2023-05-06T16:58:16.053Z,101718.81
2023-05-06T17:00:42.859Z,101731.50
2023-05-06T17:03:09.880Z,101725.34
2023-05-06T17:05:36.851Z,101741.81
2023-05-06T17:08:04.025Z,101704.91
2023-05-06T17:10:30.949Z,101720.97
2023-05-06T17:12:58.231Z,101700.22
2023-05-06T17:15:25.735Z,101737.28
2023-05-06T17:17:52.834Z,101711.75
2023-05-06T17:20:23.017Z,101732.25
2023-05-06T17:22:49.733Z,101726.09
2023-05-06T17:25:16.887Z,101724.69
2023-05-06T17:27:44.391Z,101699.44
2023-05-06T17:30:12.087Z,101731.44
2023-05-06T17:32:39.256Z,101735.94
2023-05-06T17:35:06.712Z,101733.13
2023-05-06T17:37:34.394Z,101727.28
2023-05-06T17:40:02.047Z,101712.72
2023-05-06T17:42:29.603Z,101726.16
2023-05-06T17:44:56.279Z,101734.28
2023-05-06T17:47:23.095Z,101726.16
2023-05-06T17:49:53.281Z,101715.78
2023-05-06T17:52:20.801Z,101695.28
2023-05-06T17:55:05.851Z,101707.06
2023-05-06T17:57:37.702Z,101712.13
2023-05-06T18:00:05.464Z,101711.28
2023-05-06T18:02:32.138Z,101714.09
2023-05-06T18:04:59.136Z,101726.16
2023-05-06T18:07:25.961Z,101727.19
2023-05-06T18:09:53.255Z,101684.31
2023-05-06T18:12:20.061Z,101716.66
2023-05-06T18:14:47.914Z,101686.88
2023-05-06T18:17:14.532Z,101699.69
2023-05-06T18:19:41.108Z,101709.22
2023-05-06T18:22:08.067Z,101683.41
2023-05-06T18:24:34.782Z,101694.75
2023-05-06T18:27:02.343Z,101720.63
2023-05-06T18:29:30.392Z,101732.16
2023-05-06T18:31:57.639Z,101694.22
2023-05-06T18:34:24.352Z,101726.00
2023-05-06T18:36:51.337Z,101726.00
2023-05-06T18:39:18.146Z,101728.94
2023-05-06T18:41:44.812Z,101728.53
2023-05-06T18:44:11.874Z,101698.50
2023-05-06T18:46:38.560Z,101740.91
2023-05-06T18:49:05.896Z,101719.81
2023-05-06T18:51:32.653Z,101745.97
2023-05-06T18:53:59.317Z,101705.78
2023-05-06T18:56:25.961Z,101724.75
2023-05-06T18:58:52.952Z,101738.38
2023-05-06T19:01:19.540Z,101736.69
2023-05-06T19:03:46.903Z,101692.69
2023-05-06T19:06:13.917Z,101733.47
2023-05-06T19:08:40.821Z,101741.88
2023-05-06T19:11:14.419Z,101743.13
2023-05-06T19:13:42.841Z,101736.41
2023-05-06T19:16:09.642Z,101743.44
2023-05-06T19:18:36.666Z,101740.88
2023-05-06T19:21:03.372Z,101735.53
2023-05-06T19:23:30.412Z,101725.72
2023-05-06T19:25:57.327Z,101718.38
2023-05-06T19:28:24.874Z,101740.28
2023-05-06T19:30:51.546Z,101735.22
2023-05-06T19:33:18.612Z,101744.78
2023-05-06T19:35:45.461Z,101746.88
2023-05-06T19:38:12.129Z,101740.22
2023-05-06T19:40:38.841Z,101741.38
2023-05-06T19:43:05.583Z,101728.97
2023-05-06T19:45:33.313Z,101743.88
2023-05-06T19:48:01.041Z,101727.69
2023-05-06T19:50:28.487Z,101746.66
2023-05-06T19:52:55.268Z,101720.47
2023-05-06T19:55:22.356Z,101750.59
2023-05-06T19:57:49.902Z,101732.88
2023-05-06T20:00:19.951Z,101733.72
2023-05-06T20:02:46.843Z,101704.47
2023-05-06T20:05:13.680Z,101741.56
2023-05-06T20:07:41.298Z,101735.09
2023-05-06T20:10:10.069Z,101733.94
2023-05-06T20:12:36.901Z,101721.41
2023-05-06T20:15:03.949Z,101746.28
2023-05-06T20:17:31.305Z,101735.06
2023-05-06T20:19:58.602Z,101745.31
2023-05-06T20:22:26.071Z,101736.03
2023-05-06T20:24:53.255Z,101747.97
2023-05-06T20:27:23.438Z,101731.09
2023-05-06T20:29:51.671Z,101736.16
2023-05-06T20:32:18.792Z,101739.78
2023-05-06T20:34:45.365Z,101744.44
2023-05-06T20:37:12.028Z,101739.66
2023-05-06T20:39:38.734Z,101714.75
2023-05-06T20:42:05.516Z,101735.72
2023-05-06T20:44:32.127Z,101742.31
2023-05-06T20:46:58.739Z,101735.59
2023-05-06T20:49:26.299Z,101749.59
2023-05-06T20:51:53.121Z,101741.19
2023-05-06T20:54:19.745Z,101756.06
2023-05-06T20:56:46.485Z,101741.47
2023-05-06T20:59:13.130Z,101719.78
2023-05-06T21:01:39.882Z,101732.44
2023-05-06T21:04:06.662Z,101725.41
2023-05-06T21:06:33.420Z,101686.59
2023-05-06T21:09:00.138Z,101745.66
2023-05-06T21:11:28.902Z,101753.28
2023-05-06T21:13:55.727Z,101749.03
2023-05-06T21:16:22.697Z,101750.00
2023-05-06T21:18:49.533Z,101740.34
2023-05-06T21:21:16.245Z,101747.34
2023-05-06T21:23:43.214Z,101749.75
2023-05-06T21:26:11.592Z,101711.06
2023-05-06T21:28:38.405Z,101752.16
2023-05-06T21:31:05.190Z,101744.81
2023-05-06T21:33:32.182Z,101755.53
2023-05-06T21:35:58.784Z,101754.13
2023-05-06T21:38:27.866Z,101754.56
2023-05-06T21:40:55.771Z,101740.06
2023-05-06T21:43:22.719Z,101742.88
2023-05-06T21:45:49.691Z,101750.88
2023-05-06T21:48:16.764Z,101751.16
2023-05-06T21:50:43.483Z,101755.53
2023-05-06T21:53:10.406Z,101759.44
2023-05-06T21:55:37.201Z,101747.34
2023-05-06T21:58:04.195Z,101759.44
2023-05-06T22:00:31.290Z,101759.16
2023-05-06T22:02:58.640Z,101771.25
2023-05-06T22:05:25.444Z,101742.56
2023-05-06T22:07:52.224Z,101760.84
2023-05-06T22:10:18.942Z,101759.16
2023-05-06T22:12:45.856Z,101762.81
2023-05-06T22:15:14.811Z,101760.25
2023-05-06T22:17:41.723Z,101773.47
2023-05-06T22:20:11.411Z,101770.38
2023-05-06T22:22:38.444Z,101769.38
2023-05-06T22:25:05.852Z,101770.63
2023-05-06T22:27:33.013Z,101768.91
2023-05-06T22:29:59.912Z,101779.88
2023-05-06T22:32:26.720Z,101782.53
2023-05-06T22:34:53.514Z,101777.19
2023-05-06T22:37:20.230Z,101770.59
2023-05-06T22:39:47.631Z,101755.38
2023-05-06T22:42:14.266Z,101779.44
2023-05-06T22:44:41.214Z,101771.44
2023-05-06T22:47:07.900Z,101741.03
2023-05-06T22:49:36.394Z,101756.22
2023-05-06T22:52:03.408Z,101765.19
2023-05-06T22:54:30.197Z,101750.00
2023-05-06T22:56:56.820Z,101746.59
2023-05-06T22:59:23.481Z,101758.44
2023-05-06T23:01:50.211Z,101751.44
2023-05-06T23:04:16.923Z,101755.06
2023-05-06T23:06:44.555Z,101740.28
2023-05-06T23:09:12.446Z,101769.34
2023-05-06T23:11:40.017Z,101736.09
2023-05-06T23:14:06.758Z,101755.84
2023-05-06T23:16:33.961Z,101758.63
2023-05-06T23:19:00.597Z,101758.06
2023-05-06T23:21:27.685Z,101757.78
2023-05-06T23:23:54.304Z,101745.97
2023-05-06T23:26:21.244Z,101754.56
2023-05-06T23:28:48.066Z,101740.94
2023-05-06T23:31:15.260Z,101747.91
2023-05-06T23:33:41.965Z,101758.00
2023-05-06T23:36:08.702Z,101755.00
2023-05-06T23:38:35.726Z,101761.03
2023-05-06T23:41:02.337Z,101757.66
2023-05-06T23:43:29.101Z,101768.66
2023-05-06T23:45:55.755Z,101733.72
2023-05-06T23:48:22.356Z,101764.16
2023-05-06T23:50:48.900Z,101772.16
2023-05-06T23:53:15.614Z,101757.91
2023-05-06T23:55:42.909Z,101763.69
2023-05-06T23:58:09.778Z,101753.56
